sensor_id;sensor_type;location;lat;lon;timestamp;pressure;altitude;pressure_sealevel;temperature;humidity
12868;BME280;33517;49.866;8.320;2024-03-23T00:52:26;99617.78;;;9.42;88.03
12868;BME280;33517;49.866;8.320;2024-03-23T00:55:18;99615.13;;;9.27;87.96
12868;BME280;33517;49.866;8.320;2024-03-23T00:58:09;99614.66;;;9.23;88.76
12868;BME280;33517;49.866;8.320;2024-03-23T01:01:01;99612.53;;;9.19;89.08
12868;BME280;33517;49.866;8.320;2024-03-23T01:03:54;99602.22;;;9.17;89.37
12868;BME280;33517;49.866;8.320;2024-03-23T01:06:46;99601.53;;;9.23;88.68
12868;BME280;33517;49.866;8.320;2024-03-23T01:09:38;99599.81;;;9.30;88.94
12868;BME280;33517;49.866;8.320;2024-03-23T01:12:30;99601.09;;;9.35;87.92
12868;BME280;33517;49.866;8.320;2024-03-23T01:15:21;99588.34;;;9.32;87.48
12868;BME280;33517;49.866;8.320;2024-03-23T01:18:13;99592.44;;;9.11;89.27
12868;BME280;33517;49.866;8.320;2024-03-23T01:21:04;99597.72;;;9.03;89.71
12868;BME280;33517;49.866;8.320;2024-03-23T01:23:56;99598.38;;;9.05;89.11
12868;BME280;33517;49.866;8.320;2024-03-23T01:26:48;99599.97;;;9.14;89.95
12868;BME280;33517;49.866;8.320;2024-03-23T01:29:40;99599.03;;;9.30;89.04
12868;BME280;33517;49.866;8.320;2024-03-23T01:32:31;99591.03;;;9.23;90.64
12868;BME280;33517;49.866;8.320;2024-03-23T01:35:23;99594.75;;;9.29;90.98
12868;BME280;33517;49.866;8.320;2024-03-23T01:38:14;99588.69;;;9.28;90.79
12868;BME280;33517;49.866;8.320;2024-03-23T01:41:06;99589.03;;;9.25;92.63
12868;BME280;33517;49.866;8.320;2024-03-23T01:44:01;99570.41;;;9.20;91.60
12868;BME280;33517;49.866;8.320;2024-03-23T01:46:56;99571.50;;;9.26;90.17
12868;BME280;33517;49.866;8.320;2024-03-23T01:49:47;99564.13;;;9.21;91.15
12868;BME280;33517;49.866;8.320;2024-03-23T01:52:39;99563.22;;;9.14;91.16
12868;BME280;33517;49.866;8.320;2024-03-23T01:55:31;99560.59;;;9.14;90.38
12868;BME280;33517;49.866;8.320;2024-03-23T01:58:23;99554.16;;;9.17;90.99
12868;BME280;33517;49.866;8.320;2024-03-23T02:01:15;99551.72;;;9.15;90.64
12868;BME280;33517;49.866;8.320;2024-03-23T02:04:07;99536.28;;;9.20;91.36
12868;BME280;33517;49.866;8.320;2024-03-23T02:06:59;99534.09;;;9.24;90.46
12868;BME280;33517;49.866;8.320;2024-03-23T02:09:51;99527.31;;;9.29;91.23
12868;BME280;33517;49.866;8.320;2024-03-23T02:12:43;99524.00;;;9.36;91.10
12868;BME280;33517;49.866;8.320;2024-03-23T02:15:35;99518.00;;;9.42;90.58
12868;BME280;33517;49.866;8.320;2024-03-23T02:18:27;99517.47;;;9.46;90.54
12868;BME280;33517;49.866;8.320;2024-03-23T02:21:19;99509.25;;;9.49;90.68
12868;BME280;33517;49.866;8.320;2024-03-23T02:24:11;99495.75;;;9.52;90.10
12868;BME280;33517;49.866;8.320;2024-03-23T02:27:03;99498.19;;;9.54;90.37
12868;BME280;33517;49.866;8.320;2024-03-23T02:29:54;99502.09;;;9.58;90.13
12868;BME280;33517;49.866;8.320;2024-03-23T02:32:46;99494.66;;;9.61;89.93
12868;BME280;33517;49.866;8.320;2024-03-23T02:35:37;99493.47;;;9.64;90.36
12868;BME280;33517;49.866;8.320;2024-03-23T02:38:29;99496.94;;;9.64;90.06
12868;BME280;33517;49.866;8.320;2024-03-23T02:41:21;99507.59;;;9.63;89.58
12868;BME280;33517;49.866;8.320;2024-03-23T02:44:14;99496.47;;;9.61;89.88
12868;BME280;33517;49.866;8.320;2024-03-23T02:47:06;99495.84;;;9.59;90.18
12868;BME280;33517;49.866;8.320;2024-03-23T02:49:58;99493.81;;;9.61;90.33
12868;BME280;33517;49.866;8.320;2024-03-23T02:52:49;99490.66;;;9.65;90.19
12868;BME280;33517;49.866;8.320;2024-03-23T02:55:41;99490.31;;;9.68;90.15
12868;BME280;33517;49.866;8.320;2024-03-23T02:58:33;99491.41;;;9.74;89.82
12868;BME280;33517;49.866;8.320;2024-03-23T03:01:25;99481.16;;;9.79;90.31
12868;BME280;33517;49.866;8.320;2024-03-23T03:04:16;99471.28;;;9.81;89.44
12868;BME280;33517;49.866;8.320;2024-03-23T03:07:08;99469.91;;;9.85;89.69
12868;BME280;33517;49.866;8.320;2024-03-23T03:10:00;99451.53;;;9.85;90.04
12868;BME280;33517;49.866;8.320;2024-03-23T03:12:51;99463.31;;;9.89;89.70
12868;BME280;33517;49.866;8.320;2024-03-23T03:15:45;99458.28;;;9.94;89.63
12868;BME280;33517;49.866;8.320;2024-03-23T03:18:36;99449.69;;;10.00;89.78
12868;BME280;33517;49.866;8.320;2024-03-23T03:21:28;99449.69;;;10.00;89.60
12868;BME280;33517;49.866;8.320;2024-03-23T03:24:19;99465.06;;;10.03;89.87
12868;BME280;33517;49.866;8.320;2024-03-23T03:27:11;99457.47;;;10.08;89.85
12868;BME280;33517;49.866;8.320;2024-03-23T03:30:03;99460.56;;;10.11;89.05
12868;BME280;33517;49.866;8.320;2024-03-23T03:32:57;99450.50;;;10.15;89.24
12868;BME280;33517;49.866;8.320;2024-03-23T03:35:48;99454.19;;;10.20;89.15
12868;BME280;33517;49.866;8.320;2024-03-23T03:38:42;99462.16;;;10.27;89.34
12868;BME280;33517;49.866;8.320;2024-03-23T03:41:33;99468.28;;;10.34;89.44
12868;BME280;33517;49.866;8.320;2024-03-23T03:44:25;99481.31;;;10.42;89.12
12868;BME280;33517;49.866;8.320;2024-03-23T03:47:16;99476.75;;;10.51;88.71
12868;BME280;33517;49.866;8.320;2024-03-23T03:50:09;99467.31;;;10.56;88.92
12868;BME280;33517;49.866;8.320;2024-03-23T03:53:00;99481.88;;;10.59;88.97
12868;BME280;33517;49.866;8.320;2024-03-23T03:55:52;99471.81;;;10.62;88.84
12868;BME280;33517;49.866;8.320;2024-03-23T03:58:43;99467.78;;;10.66;89.24
12868;BME280;33517;49.866;8.320;2024-03-23T04:01:35;99465.78;;;10.68;89.31
12868;BME280;33517;49.866;8.320;2024-03-23T04:04:27;99477.75;;;10.71;89.15
12868;BME280;33517;49.866;8.320;2024-03-23T04:07:19;99478.00;;;10.76;89.17
12868;BME280;33517;49.866;8.320;2024-03-23T04:10:13;99507.56;;;10.78;89.49
12868;BME280;33517;49.866;8.320;2024-03-23T04:13:04;99512.91;;;10.63;90.17
12868;BME280;33517;49.866;8.320;2024-03-23T04:15:56;99525.66;;;10.45;92.10
12868;BME280;33517;49.866;8.320;2024-03-23T04:18:47;99530.44;;;10.20;94.10
12868;BME280;33517;49.866;8.320;2024-03-23T04:21:39;99532.25;;;9.91;95.30
12868;BME280;33517;49.866;8.320;2024-03-23T04:24:31;99540.84;;;9.70;95.87
12868;BME280;33517;49.866;8.320;2024-03-23T04:27:23;99525.88;;;9.42;96.44
12868;BME280;33517;49.866;8.320;2024-03-23T04:30:14;99540.91;;;9.33;96.37
12868;BME280;33517;49.866;8.320;2024-03-23T04:33:07;99544.03;;;9.14;96.61
12868;BME280;33517;49.866;8.320;2024-03-23T04:35:57;99544.22;;;9.12;96.05
12868;BME280;33517;49.866;8.320;2024-03-23T04:38:49;99549.78;;;9.09;96.10
12868;BME280;33517;49.866;8.320;2024-03-23T04:41:44;99548.09;;;8.94;95.86
12868;BME280;33517;49.866;8.320;2024-03-23T04:44:36;99555.84;;;8.95;95.51
12868;BME280;33517;49.866;8.320;2024-03-23T04:47:28;99562.41;;;8.91;95.22
12868;BME280;33517;49.866;8.320;2024-03-23T04:50:20;99560.72;;;8.98;95.23
12868;BME280;33517;49.866;8.320;2024-03-23T04:53:11;99550.03;;;9.00;96.01
12868;BME280;33517;49.866;8.320;2024-03-23T04:56:03;99566.84;;;8.91;95.03
12868;BME280;33517;49.866;8.320;2024-03-23T04:58:57;99577.06;;;8.86;96.04
12868;BME280;33517;49.866;8.320;2024-03-23T05:01:51;99588.84;;;8.90;95.70
12868;BME280;33517;49.866;8.320;2024-03-23T05:04:43;99595.06;;;8.89;95.07
12868;BME280;33517;49.866;8.320;2024-03-23T05:07:34;99626.94;;;8.78;95.39
12868;BME280;33517;49.866;8.320;2024-03-23T05:10:26;99621.38;;;8.73;96.92
12868;BME280;33517;49.866;8.320;2024-03-23T05:13:17;99618.75;;;8.73;97.57
12868;BME280;33517;49.866;8.320;2024-03-23T05:16:11;99626.00;;;8.71;95.72
12868;BME280;33517;49.866;8.320;2024-03-23T05:19:02;99629.59;;;8.70;95.81
12868;BME280;33517;49.866;8.320;2024-03-23T05:21:53;99628.47;;;8.64;95.68
12868;BME280;33517;49.866;8.320;2024-03-23T05:24:45;99645.75;;;8.51;94.59
12868;BME280;33517;49.866;8.320;2024-03-23T05:27:37;99644.00;;;8.35;94.80
12868;BME280;33517;49.866;8.320;2024-03-23T05:30:29;99652.81;;;8.42;94.38
12868;BME280;33517;49.866;8.320;2024-03-23T05:33:21;99644.13;;;8.50;94.32
12868;BME280;33517;49.866;8.320;2024-03-23T05:36:13;99641.50;;;8.50;93.97
12868;BME280;33517;49.866;8.320;2024-03-23T05:39:04;99652.47;;;8.53;93.41
12868;BME280;33517;49.866;8.320;2024-03-23T05:41:56;99675.75;;;8.48;93.92
12868;BME280;33517;49.866;8.320;2024-03-23T05:44:47;99681.16;;;8.47;92.77
12868;BME280;33517;49.866;8.320;2024-03-23T05:47:39;99689.84;;;8.47;93.82
12868;BME280;33517;49.866;8.320;2024-03-23T05:50:31;99688.91;;;8.40;93.42
12868;BME280;33517;49.866;8.320;2024-03-23T05:53:23;99694.63;;;8.35;91.37
12868;BME280;33517;49.866;8.320;2024-03-23T05:56:14;99714.78;;;8.35;91.40
12868;BME280;33517;49.866;8.320;2024-03-23T05:59:11;99712.34;;;8.25;89.88
12868;BME280;33517;49.866;8.320;2024-03-23T06:02:02;99721.88;;;8.26;90.04
12868;BME280;33517;49.866;8.320;2024-03-23T06:04:54;99720.69;;;8.37;89.30
12868;BME280;33517;49.866;8.320;2024-03-23T06:07:46;99740.16;;;8.34;88.99
12868;BME280;33517;49.866;8.320;2024-03-23T06:10:40;99736.94;;;8.24;88.11
12868;BME280;33517;49.866;8.320;2024-03-23T06:13:31;99731.16;;;8.29;87.97
12868;BME280;33517;49.866;8.320;2024-03-23T06:16:23;99743.28;;;8.22;87.83
12868;BME280;33517;49.866;8.320;2024-03-23T06:19:15;99746.91;;;8.13;87.20
12868;BME280;33517;49.866;8.320;2024-03-23T06:22:07;99772.28;;;8.20;87.25
12868;BME280;33517;49.866;8.320;2024-03-23T06:24:59;99792.91;;;8.15;86.37
12868;BME280;33517;49.866;8.320;2024-03-23T06:27:51;99810.44;;;8.23;87.10
12868;BME280;33517;49.866;8.320;2024-03-23T06:30:41;99826.00;;;8.16;86.17
12868;BME280;33517;49.866;8.320;2024-03-23T06:33:33;99825.34;;;8.06;85.50
12868;BME280;33517;49.866;8.320;2024-03-23T06:36:25;99812.06;;;8.08;85.89
12868;BME280;33517;49.866;8.320;2024-03-23T06:39:17;99826.84;;;8.25;85.37
12868;BME280;33517;49.866;8.320;2024-03-23T06:42:09;99830.59;;;8.38;85.35
12868;BME280;33517;49.866;8.320;2024-03-23T06:45:01;99834.88;;;8.31;84.38
12868;BME280;33517;49.866;8.320;2024-03-23T06:47:52;99831.78;;;8.36;85.43
12868;BME280;33517;49.866;8.320;2024-03-23T06:50:46;99831.75;;;8.52;82.93
12868;BME280;33517;49.866;8.320;2024-03-23T06:53:38;99831.66;;;8.84;82.36
12868;BME280;33517;49.866;8.320;2024-03-23T06:56:29;99839.53;;;10.38;79.04
12868;BME280;33517;49.866;8.320;2024-03-23T06:59:22;99846.81;;;14.99;63.10
12868;BME280;33517;49.866;8.320;2024-03-23T07:02:13;99865.63;;;13.65;63.61
12868;BME280;33517;49.866;8.320;2024-03-23T07:05:06;99865.19;;;11.60;67.58
12868;BME280;33517;49.866;8.320;2024-03-23T07:07:58;99884.06;;;10.62;70.64
12868;BME280;33517;49.866;8.320;2024-03-23T07:10:49;99889.25;;;10.10;72.64
12868;BME280;33517;49.866;8.320;2024-03-23T07:13:41;99893.16;;;10.06;73.36
12868;BME280;33517;49.866;8.320;2024-03-23T07:16:33;99902.41;;;10.47;73.54
12868;BME280;33517;49.866;8.320;2024-03-23T07:19:25;99914.00;;;11.27;70.86
12868;BME280;33517;49.866;8.320;2024-03-23T07:22:16;99913.47;;;10.80;69.42
12868;BME280;33517;49.866;8.320;2024-03-23T07:25:08;99934.19;;;10.60;70.00
12868;BME280;33517;49.866;8.320;2024-03-23T07:27:59;99931.34;;;12.79;68.25
12868;BME280;33517;49.866;8.320;2024-03-23T07:31:02;99925.91;;;13.83;59.07
12868;BME280;33517;49.866;8.320;2024-03-23T07:33:54;99930.38;;;12.59;62.91
12868;BME280;33517;49.866;8.320;2024-03-23T07:36:46;99933.09;;;11.73;64.69
12868;BME280;33517;49.866;8.320;2024-03-23T07:39:39;99945.59;;;11.56;64.60
12868;BME280;33517;49.866;8.320;2024-03-23T07:42:30;99952.31;;;11.30;67.16
12868;BME280;33517;49.866;8.320;2024-03-23T07:45:21;99949.78;;;11.80;65.08
12868;BME280;33517;49.866;8.320;2024-03-23T07:48:12;99954.41;;;11.92;64.63
12868;BME280;33517;49.866;8.320;2024-03-23T07:51:08;99956.78;;;12.23;63.43
12868;BME280;33517;49.866;8.320;2024-03-23T07:54:00;99947.25;;;15.59;56.20
12868;BME280;33517;49.866;8.320;2024-03-23T07:56:52;99968.97;;;17.68;50.06
12868;BME280;33517;49.866;8.320;2024-03-23T07:59:42;99983.38;;;18.86;45.56
12868;BME280;33517;49.866;8.320;2024-03-23T08:02:34;99979.75;;;18.69;44.28
12868;BME280;33517;49.866;8.320;2024-03-23T08:05:26;99988.72;;;18.86;44.59
12868;BME280;33517;49.866;8.320;2024-03-23T08:08:19;99986.41;;;20.61;40.56
12868;BME280;33517;49.866;8.320;2024-03-23T08:11:10;99994.53;;;20.66;40.40
12868;BME280;33517;49.866;8.320;2024-03-23T08:14:02;99996.38;;;21.27;38.68
12868;BME280;33517;49.866;8.320;2024-03-23T08:16:55;99988.69;;;21.85;38.60
12868;BME280;33517;49.866;8.320;2024-03-23T08:19:46;99995.94;;;23.13;36.52
12868;BME280;33517;49.866;8.320;2024-03-23T08:22:37;100010.59;;;22.74;36.82
12868;BME280;33517;49.866;8.320;2024-03-23T08:25:32;100007.81;;;21.77;36.27
12868;BME280;33517;49.866;8.320;2024-03-23T08:28:22;100001.91;;;22.88;36.48
12868;BME280;33517;49.866;8.320;2024-03-23T08:31:14;100003.47;;;23.53;34.61
12868;BME280;33517;49.866;8.320;2024-03-23T08:34:06;100001.84;;;22.83;35.27
12868;BME280;33517;49.866;8.320;2024-03-23T08:36:57;99989.13;;;23.37;34.22
12868;BME280;33517;49.866;8.320;2024-03-23T08:39:50;99990.34;;;23.56;34.68
12868;BME280;33517;49.866;8.320;2024-03-23T08:42:43;99985.38;;;24.67;31.90
12868;BME280;33517;49.866;8.320;2024-03-23T08:45:35;99982.53;;;24.02;32.84
12868;BME280;33517;49.866;8.320;2024-03-23T08:48:26;99973.84;;;25.22;33.44
12868;BME280;33517;49.866;8.320;2024-03-23T08:51:18;99978.34;;;25.82;32.59
12868;BME280;33517;49.866;8.320;2024-03-23T08:54:10;99983.16;;;24.19;32.76
12868;BME280;33517;49.866;8.320;2024-03-23T08:57:02;99988.63;;;25.70;30.21
12868;BME280;33517;49.866;8.320;2024-03-23T08:59:54;99999.16;;;23.15;33.64
12868;BME280;33517;49.866;8.320;2024-03-23T09:02:47;100009.25;;;20.97;35.80
12868;BME280;33517;49.866;8.320;2024-03-23T09:05:39;100018.34;;;18.78;40.09
12868;BME280;33517;49.866;8.320;2024-03-23T09:08:31;100017.00;;;18.87;37.83
12868;BME280;33517;49.866;8.320;2024-03-23T09:11:21;100003.38;;;19.76;37.58
12868;BME280;33517;49.866;8.320;2024-03-23T09:14:13;100011.53;;;18.82;38.77
12868;BME280;33517;49.866;8.320;2024-03-23T09:17:06;100001.31;;;21.02;38.25
12868;BME280;33517;49.866;8.320;2024-03-23T09:19:58;100007.72;;;22.11;36.02
12868;BME280;33517;49.866;8.320;2024-03-23T09:22:49;100006.03;;;23.01;34.07
12868;BME280;33517;49.866;8.320;2024-03-23T09:25:41;100005.09;;;22.59;34.95
12868;BME280;33517;49.866;8.320;2024-03-23T09:28:32;100007.03;;;20.77;36.24
12868;BME280;33517;49.866;8.320;2024-03-23T09:31:24;100010.25;;;19.37;37.83
12868;BME280;33517;49.866;8.320;2024-03-23T09:34:16;100003.09;;;21.46;35.53
12868;BME280;33517;49.866;8.320;2024-03-23T09:37:08;100002.53;;;24.26;32.91
12868;BME280;33517;49.866;8.320;2024-03-23T09:39:59;100009.59;;;22.80;33.36
12868;BME280;33517;49.866;8.320;2024-03-23T09:42:51;100011.75;;;24.60;30.31
12868;BME280;33517;49.866;8.320;2024-03-23T09:45:44;100007.38;;;23.30;30.95
12868;BME280;33517;49.866;8.320;2024-03-23T09:48:36;100008.28;;;21.53;32.74
12868;BME280;33517;49.866;8.320;2024-03-23T09:51:28;100018.34;;;22.97;33.00
12868;BME280;33517;49.866;8.320;2024-03-23T09:54:20;100012.13;;;24.94;29.31
12868;BME280;33517;49.866;8.320;2024-03-23T09:57:12;100017.91;;;24.55;28.72
12868;BME280;33517;49.866;8.320;2024-03-23T10:00:05;100023.56;;;24.44;29.64
12868;BME280;33517;49.866;8.320;2024-03-23T10:02:58;100006.72;;;25.44;26.98
12868;BME280;33517;49.866;8.320;2024-03-23T10:06:00;100013.25;;;23.69;29.34
12868;BME280;33517;49.866;8.320;2024-03-23T10:08:53;100024.41;;;19.49;33.63
12868;BME280;33517;49.866;8.320;2024-03-23T10:11:45;100016.06;;;22.84;30.63
12868;BME280;33517;49.866;8.320;2024-03-23T10:14:39;100004.84;;;25.04;27.90
12868;BME280;33517;49.866;8.320;2024-03-23T10:17:31;100024.56;;;22.28;29.37
12868;BME280;33517;49.866;8.320;2024-03-23T10:20:23;100017.75;;;19.17;32.78
12868;BME280;33517;49.866;8.320;2024-03-23T10:23:15;100022.28;;;16.75;35.90
12868;BME280;33517;49.866;8.320;2024-03-23T10:26:19;100025.38;;;14.92;38.41
12868;BME280;33517;49.866;8.320;2024-03-23T10:29:12;100042.34;;;13.96;41.37
12868;BME280;33517;49.866;8.320;2024-03-23T10:32:10;100081.63;;;13.16;43.81
12868;BME280;33517;49.866;8.320;2024-03-23T10:35:15;100083.97;;;11.52;47.85
12868;BME280;33517;49.866;8.320;2024-03-23T10:38:07;100107.78;;;10.46;52.28
12868;BME280;33517;49.866;8.320;2024-03-23T10:40:59;100093.72;;;9.68;56.92
12868;BME280;33517;49.866;8.320;2024-03-23T10:43:53;100121.13;;;9.25;60.11
12868;BME280;33517;49.866;8.320;2024-03-23T10:46:46;100114.53;;;8.89;64.58
12868;BME280;33517;49.866;8.320;2024-03-23T10:49:38;100125.19;;;8.87;65.31
12868;BME280;33517;49.866;8.320;2024-03-23T10:52:29;100128.13;;;8.76;65.16
12868;BME280;33517;49.866;8.320;2024-03-23T10:55:22;100124.84;;;8.82;67.84
12868;BME280;33517;49.866;8.320;2024-03-23T10:58:14;100123.72;;;8.85;68.15
12868;BME280;33517;49.866;8.320;2024-03-23T11:01:12;100124.97;;;8.73;69.01
12868;BME280;33517;49.866;8.320;2024-03-23T11:04:03;100135.47;;;8.65;68.55
12868;BME280;33517;49.866;8.320;2024-03-23T11:06:55;100122.97;;;8.51;70.93
12868;BME280;33517;49.866;8.320;2024-03-23T11:09:48;100133.03;;;8.79;71.84
12868;BME280;33517;49.866;8.320;2024-03-23T11:12:41;100109.28;;;8.81;72.29
12868;BME280;33517;49.866;8.320;2024-03-23T11:15:33;100102.56;;;9.75;70.45
12868;BME280;33517;49.866;8.320;2024-03-23T11:18:26;100082.75;;;10.19;67.32
12868;BME280;33517;49.866;8.320;2024-03-23T11:21:51;100056.38;;;10.35;66.09
12868;BME280;33517;49.866;8.320;2024-03-23T11:24:49;100042.16;;;10.52;63.63
12868;BME280;33517;49.866;8.320;2024-03-23T11:27:40;100044.03;;;11.92;61.54
12868;BME280;33517;49.866;8.320;2024-03-23T11:30:32;100033.06;;;13.17;58.25
12868;BME280;33517;49.866;8.320;2024-03-23T11:33:26;100023.88;;;12.71;57.50
12868;BME280;33517;49.866;8.320;2024-03-23T11:36:19;100018.63;;;13.41;55.22
12868;BME280;33517;49.866;8.320;2024-03-23T11:39:13;100007.84;;;16.64;51.71
12868;BME280;33517;49.866;8.320;2024-03-23T11:42:07;99997.03;;;19.54;46.76
12868;BME280;33517;49.866;8.320;2024-03-23T11:44:58;99996.78;;;21.90;41.51
12868;BME280;33517;49.866;8.320;2024-03-23T11:48:01;99993.50;;;23.12;38.79
12868;BME280;33517;49.866;8.320;2024-03-23T11:50:56;99988.53;;;22.67;35.73
12868;BME280;33517;49.866;8.320;2024-03-23T11:53:49;99980.75;;;22.97;34.72
12868;BME280;33517;49.866;8.320;2024-03-23T11:56:40;99967.81;;;23.62;33.30
12868;BME280;33517;49.866;8.320;2024-03-23T11:59:32;99959.88;;;23.36;32.59
12868;BME280;33517;49.866;8.320;2024-03-23T12:02:23;99969.22;;;23.75;32.62
12868;BME280;33517;49.866;8.320;2024-03-23T12:05:16;99964.63;;;23.70;32.87
12868;BME280;33517;49.866;8.320;2024-03-23T12:08:22;99948.56;;;23.81;31.92
12868;BME280;33517;49.866;8.320;2024-03-23T12:11:16;99949.09;;;23.31;31.23
12868;BME280;33517;49.866;8.320;2024-03-23T12:14:07;99941.00;;;21.49;32.80
12868;BME280;33517;49.866;8.320;2024-03-23T12:17:08;99936.72;;;19.81;35.20
12868;BME280;33517;49.866;8.320;2024-03-23T12:19:59;99936.09;;;18.22;36.44
12868;BME280;33517;49.866;8.320;2024-03-23T12:22:51;99937.69;;;17.64;38.21
12868;BME280;33517;49.866;8.320;2024-03-23T12:25:43;99933.31;;;17.08;39.44
12868;BME280;33517;49.866;8.320;2024-03-23T12:28:35;99925.41;;;16.08;40.08
12868;BME280;33517;49.866;8.320;2024-03-23T12:31:28;99929.75;;;16.34;41.41
12868;BME280;33517;49.866;8.320;2024-03-23T12:34:18;99924.91;;;16.87;40.73
12868;BME280;33517;49.866;8.320;2024-03-23T12:37:10;99923.72;;;15.83;42.17
12868;BME280;33517;49.866;8.320;2024-03-23T12:40:04;99931.19;;;15.48;43.22
12868;BME280;33517;49.866;8.320;2024-03-23T12:42:57;99935.31;;;14.78;44.51
12868;BME280;33517;49.866;8.320;2024-03-23T12:45:48;99949.06;;;13.34;47.45
12868;BME280;33517;49.866;8.320;2024-03-23T12:48:40;99961.09;;;12.10;52.21
12868;BME280;33517;49.866;8.320;2024-03-23T12:51:32;99993.13;;;11.63;56.16
12868;BME280;33517;49.866;8.320;2024-03-23T12:54:24;100037.25;;;10.10;64.75
12868;BME280;33517;49.866;8.320;2024-03-23T12:57:15;100053.81;;;8.10;74.46
12868;BME280;33517;49.866;8.320;2024-03-23T13:00:10;100038.06;;;7.42;75.66
12868;BME280;33517;49.866;8.320;2024-03-23T13:03:02;100042.56;;;7.07;77.77
12868;BME280;33517;49.866;8.320;2024-03-23T13:05:55;100025.19;;;7.49;78.27
12868;BME280;33517;49.866;8.320;2024-03-23T13:08:47;100010.69;;;9.43;75.57
12868;BME280;33517;49.866;8.320;2024-03-23T13:11:38;99998.81;;;11.23;70.19
12868;BME280;33517;49.866;8.320;2024-03-23T13:14:30;99978.78;;;13.42;65.79
12868;BME280;33517;49.866;8.320;2024-03-23T13:17:22;99968.41;;;15.79;58.91
12868;BME280;33517;49.866;8.320;2024-03-23T13:20:14;99967.38;;;17.36;52.98
12868;BME280;33517;49.866;8.320;2024-03-23T13:23:05;99964.84;;;18.50;51.45
12868;BME280;33517;49.866;8.320;2024-03-23T13:25:57;99971.13;;;19.31;48.78
12868;BME280;33517;49.866;8.320;2024-03-23T13:28:48;99965.00;;;19.65;45.79
12868;BME280;33517;49.866;8.320;2024-03-23T13:31:40;99966.88;;;18.66;46.67
12868;BME280;33517;49.866;8.320;2024-03-23T13:34:32;99975.28;;;16.75;49.63
12868;BME280;33517;49.866;8.320;2024-03-23T13:37:25;99981.78;;;14.14;54.40
12868;BME280;33517;49.866;8.320;2024-03-23T13:40:17;99974.81;;;13.59;56.34
12868;BME280;33517;49.866;8.320;2024-03-23T13:43:10;99961.78;;;14.52;55.64
12868;BME280;33517;49.866;8.320;2024-03-23T13:46:01;99962.75;;;15.69;54.00
12868;BME280;33517;49.866;8.320;2024-03-23T13:48:53;99967.47;;;15.08;53.90
12868;BME280;33517;49.866;8.320;2024-03-23T13:51:47;99951.59;;;14.75;53.56
12868;BME280;33517;49.866;8.320;2024-03-23T13:54:39;99948.91;;;14.49;53.59
12868;BME280;33517;49.866;8.320;2024-03-23T13:57:35;99960.88;;;13.78;55.97
12868;BME280;33517;49.866;8.320;2024-03-23T14:00:27;99942.34;;;13.38;55.25
12868;BME280;33517;49.866;8.320;2024-03-23T14:03:19;99944.91;;;13.25;55.36
12868;BME280;33517;49.866;8.320;2024-03-23T14:06:10;99943.44;;;13.16;54.37
12868;BME280;33517;49.866;8.320;2024-03-23T14:09:04;99932.72;;;13.24;53.05
12868;BME280;33517;49.866;8.320;2024-03-23T14:11:55;99935.91;;;13.94;50.69
12868;BME280;33517;49.866;8.320;2024-03-23T14:14:47;99955.25;;;13.54;50.03
12868;BME280;33517;49.866;8.320;2024-03-23T14:17:38;99960.31;;;13.15;51.51
12868;BME280;33517;49.866;8.320;2024-03-23T14:20:30;99965.66;;;12.37;51.49
12868;BME280;33517;49.866;8.320;2024-03-23T14:23:21;99951.94;;;11.62;52.41
12868;BME280;33517;49.866;8.320;2024-03-23T14:26:14;99936.72;;;12.92;52.20
12868;BME280;33517;49.866;8.320;2024-03-23T14:29:06;99920.63;;;14.76;47.32
12868;BME280;33517;49.866;8.320;2024-03-23T14:31:59;99913.03;;;15.32;44.94
12868;BME280;33517;49.866;8.320;2024-03-23T14:34:51;99914.44;;;15.28;43.18
12868;BME280;33517;49.866;8.320;2024-03-23T14:37:44;99914.09;;;14.78;44.93
12868;BME280;33517;49.866;8.320;2024-03-23T14:40:37;99926.13;;;13.47;46.99
12868;BME280;33517;49.866;8.320;2024-03-23T14:43:30;99916.84;;;12.26;50.38
12868;BME280;33517;49.866;8.320;2024-03-23T14:46:22;99938.53;;;11.57;52.87
12868;BME280;33517;49.866;8.320;2024-03-23T14:49:14;99931.88;;;11.32;54.40
12868;BME280;33517;49.866;8.320;2024-03-23T14:52:07;99922.03;;;11.98;54.80
12868;BME280;33517;49.866;8.320;2024-03-23T14:54:59;99916.47;;;12.50;52.88
12868;BME280;33517;49.866;8.320;2024-03-23T14:57:50;99925.28;;;12.36;53.14
12868;BME280;33517;49.866;8.320;2024-03-23T15:00:43;99921.94;;;12.28;53.15
12868;BME280;33517;49.866;8.320;2024-03-23T15:03:34;99921.31;;;12.47;53.87
12868;BME280;33517;49.866;8.320;2024-03-23T15:06:26;99923.41;;;11.94;53.96
12868;BME280;33517;49.866;8.320;2024-03-23T15:09:17;99923.91;;;11.40;55.35
12868;BME280;33517;49.866;8.320;2024-03-23T15:12:09;99924.72;;;11.11;57.17
12868;BME280;33517;49.866;8.320;2024-03-23T15:15:00;99922.72;;;10.76;57.38
12868;BME280;33517;49.866;8.320;2024-03-23T15:17:53;99929.50;;;10.33;57.92
12868;BME280;33517;49.866;8.320;2024-03-23T15:20:52;99943.25;;;10.12;58.52
12868;BME280;33517;49.866;8.320;2024-03-23T15:23:45;99959.44;;;9.93;60.88
12868;BME280;33517;49.866;8.320;2024-03-23T15:26:36;99950.50;;;9.80;62.65
12868;BME280;33517;49.866;8.320;2024-03-23T15:29:28;99952.53;;;9.62;63.92
12868;BME280;33517;49.866;8.320;2024-03-23T15:32:18;99948.38;;;9.67;64.59
12868;BME280;33517;49.866;8.320;2024-03-23T15:35:12;99947.25;;;9.70;64.22
12868;BME280;33517;49.866;8.320;2024-03-23T15:38:03;99939.47;;;9.76;64.69
12868;BME280;33517;49.866;8.320;2024-03-23T15:40:55;99927.53;;;10.04;64.43
12868;BME280;33517;49.866;8.320;2024-03-23T15:43:46;99918.34;;;10.31;65.58
12868;BME280;33517;49.866;8.320;2024-03-23T15:46:38;99909.63;;;10.31;63.97
12868;BME280;33517;49.866;8.320;2024-03-23T15:49:29;99893.66;;;10.09;63.11
12868;BME280;33517;49.866;8.320;2024-03-23T15:52:23;99889.47;;;9.62;63.13
12868;BME280;33517;49.866;8.320;2024-03-23T15:55:14;99888.13;;;9.35;65.59
12868;BME280;33517;49.866;8.320;2024-03-23T15:58:06;99883.91;;;9.18;65.91
12868;BME280;33517;49.866;8.320;2024-03-23T16:00:59;99886.56;;;9.02;66.96
12868;BME280;33517;49.866;8.320;2024-03-23T16:03:50;99889.84;;;9.04;66.50
12868;BME280;33517;49.866;8.320;2024-03-23T16:06:42;99891.81;;;9.10;66.78